sensor_id;sensor_type;location;lat;lon;timestamp;P1;durP1;ratioP1;P2;durP2;ratioP2
14141;SDS011;7151;52.246;4.820;2022-08-03T00:01:21;4.27;;;1.53;;
14141;SDS011;7151;52.246;4.820;2022-08-03T00:03:47;3.63;;;1.20;;
14141;SDS011;7151;52.246;4.820;2022-08-03T00:06:12;4.67;;;1.67;;
14141;SDS011;7151;52.246;4.820;2022-08-03T00:08:38;6.50;;;1.20;;
14141;SDS011;7151;52.246;4.820;2022-08-03T00:11:03;7.27;;;1.17;;
14141;SDS011;7151;52.246;4.820;2022-08-03T00:13:31;6.23;;;1.50;;
14141;SDS011;7151;52.246;4.820;2022-08-03T00:15:57;5.13;;;1.33;;
14141;SDS011;7151;52.246;4.820;2022-08-03T00:18:22;5.60;;;1.10;;
14141;SDS011;7151;52.246;4.820;2022-08-03T00:20:48;4.93;;;1.23;;
14141;SDS011;7151;52.246;4.820;2022-08-03T00:23:13;4.90;;;1.47;;
14141;SDS011;7151;52.246;4.820;2022-08-03T00:25:39;4.90;;;1.87;;
14141;SDS011;7151;52.246;4.820;2022-08-03T00:28:05;4.73;;;1.30;;
14141;SDS011;7151;52.246;4.820;2022-08-03T00:30:31;3.57;;;1.27;;
14141;SDS011;7151;52.246;4.820;2022-08-03T00:32:57;6.53;;;1.10;;
14141;SDS011;7151;52.246;4.820;2022-08-03T00:35:23;2.77;;;1.30;;
14141;SDS011;7151;52.246;4.820;2022-08-03T00:37:49;11.60;;;1.93;;
14141;SDS011;7151;52.246;4.820;2022-08-03T00:40:15;6.23;;;1.60;;
14141;SDS011;7151;52.246;4.820;2022-08-03T00:42:45;6.90;;;1.20;;
14141;SDS011;7151;52.246;4.820;2022-08-03T00:45:15;5.73;;;1.30;;
14141;SDS011;7151;52.246;4.820;2022-08-03T00:47:41;4.33;;;1.13;;
14141;SDS011;7151;52.246;4.820;2022-08-03T00:50:07;4.57;;;1.80;;
14141;SDS011;7151;52.246;4.820;2022-08-03T00:52:33;4.20;;;1.43;;
14141;SDS011;7151;52.246;4.820;2022-08-03T00:54:59;5.83;;;1.33;;
14141;SDS011;7151;52.246;4.820;2022-08-03T00:57:26;6.03;;;1.53;;
14141;SDS011;7151;52.246;4.820;2022-08-03T00:59:54;5.37;;;1.33;;
14141;SDS011;7151;52.246;4.820;2022-08-03T01:02:20;10.17;;;1.57;;
14141;SDS011;7151;52.246;4.820;2022-08-03T01:04:45;6.60;;;1.60;;
14141;SDS011;7151;52.246;4.820;2022-08-03T01:07:16;4.20;;;1.50;;
14141;SDS011;7151;52.246;4.820;2022-08-03T01:10:03;2.93;;;1.20;;
14141;SDS011;7151;52.246;4.820;2022-08-03T01:15:24;7.63;;;1.50;;
14141;SDS011;7151;52.246;4.820;2022-08-03T01:20:51;3.30;;;1.40;;
14141;SDS011;7151;52.246;4.820;2022-08-03T01:31:31;5.83;;;1.47;;
14141;SDS011;7151;52.246;4.820;2022-08-03T01:34:01;7.20;;;1.50;;
14141;SDS011;7151;52.246;4.820;2022-08-03T01:36:29;5.70;;;1.53;;
14141;SDS011;7151;52.246;4.820;2022-08-03T01:39:00;5.30;;;1.60;;
14141;SDS011;7151;52.246;4.820;2022-08-03T01:41:29;6.00;;;1.70;;
14141;SDS011;7151;52.246;4.820;2022-08-03T01:43:58;3.50;;;1.90;;
14141;SDS011;7151;52.246;4.820;2022-08-03T01:46:26;6.07;;;1.87;;
14141;SDS011;7151;52.246;4.820;2022-08-03T01:48:53;9.63;;;2.43;;
14141;SDS011;7151;52.246;4.820;2022-08-03T01:51:20;7.63;;;2.03;;
14141;SDS011;7151;52.246;4.820;2022-08-03T01:53:47;6.40;;;1.83;;
14141;SDS011;7151;52.246;4.820;2022-08-03T01:56:15;6.73;;;1.90;;
14141;SDS011;7151;52.246;4.820;2022-08-03T01:58:43;5.10;;;1.70;;
14141;SDS011;7151;52.246;4.820;2022-08-03T02:01:09;6.03;;;1.73;;
14141;SDS011;7151;52.246;4.820;2022-08-03T02:03:38;5.07;;;1.80;;
14141;SDS011;7151;52.246;4.820;2022-08-03T02:06:06;8.53;;;2.13;;
14141;SDS011;7151;52.246;4.820;2022-08-03T02:08:34;3.70;;;1.50;;
14141;SDS011;7151;52.246;4.820;2022-08-03T02:11:02;3.67;;;1.17;;
14141;SDS011;7151;52.246;4.820;2022-08-03T02:13:30;5.37;;;1.23;;
14141;SDS011;7151;52.246;4.820;2022-08-03T02:15:58;4.77;;;1.30;;
14141;SDS011;7151;52.246;4.820;2022-08-03T02:18:25;5.27;;;1.73;;
14141;SDS011;7151;52.246;4.820;2022-08-03T02:20:52;4.47;;;1.43;;
14141;SDS011;7151;52.246;4.820;2022-08-03T02:23:18;5.93;;;1.60;;
14141;SDS011;7151;52.246;4.820;2022-08-03T02:25:45;5.23;;;1.43;;
14141;SDS011;7151;52.246;4.820;2022-08-03T02:28:17;7.37;;;1.63;;
14141;SDS011;7151;52.246;4.820;2022-08-03T02:30:45;4.63;;;1.23;;
14141;SDS011;7151;52.246;4.820;2022-08-03T02:33:15;3.70;;;0.93;;
14141;SDS011;7151;52.246;4.820;2022-08-03T02:35:45;4.43;;;1.33;;
14141;SDS011;7151;52.246;4.820;2022-08-03T02:38:12;1.97;;;1.13;;
14141;SDS011;7151;52.246;4.820;2022-08-03T02:40:40;1.50;;;1.03;;
14141;SDS011;7151;52.246;4.820;2022-08-03T02:43:09;2.37;;;1.37;;
14141;SDS011;7151;52.246;4.820;2022-08-03T02:45:41;3.83;;;1.50;;
14141;SDS011;7151;52.246;4.820;2022-08-03T02:48:09;3.10;;;1.13;;
14141;SDS011;7151;52.246;4.820;2022-08-03T02:50:36;4.43;;;1.13;;
14141;SDS011;7151;52.246;4.820;2022-08-03T02:53:03;1.90;;;1.13;;
14141;SDS011;7151;52.246;4.820;2022-08-03T02:55:30;3.37;;;1.47;;
14141;SDS011;7151;52.246;4.820;2022-08-03T02:57:58;1.97;;;0.93;;
14141;SDS011;7151;52.246;4.820;2022-08-03T03:00:24;4.07;;;1.40;;
14141;SDS011;7151;52.246;4.820;2022-08-03T03:02:51;4.53;;;1.60;;
14141;SDS011;7151;52.246;4.820;2022-08-03T03:05:17;5.87;;;1.33;;
14141;SDS011;7151;52.246;4.820;2022-08-03T03:07:43;6.47;;;1.53;;
14141;SDS011;7151;52.246;4.820;2022-08-03T03:10:09;5.17;;;1.80;;
14141;SDS011;7151;52.246;4.820;2022-08-03T03:12:36;2.87;;;1.50;;
14141;SDS011;7151;52.246;4.820;2022-08-03T03:15:04;4.17;;;1.40;;
14141;SDS011;7151;52.246;4.820;2022-08-03T03:17:30;3.53;;;1.30;;
14141;SDS011;7151;52.246;4.820;2022-08-03T03:19:57;1.50;;;1.30;;
14141;SDS011;7151;52.246;4.820;2022-08-03T03:22:24;6.30;;;1.40;;
14141;SDS011;7151;52.246;4.820;2022-08-03T03:24:51;4.03;;;1.80;;
14141;SDS011;7151;52.246;4.820;2022-08-03T03:27:18;2.90;;;1.33;;
14141;SDS011;7151;52.246;4.820;2022-08-03T03:29:44;2.60;;;1.47;;
14141;SDS011;7151;52.246;4.820;2022-08-03T03:32:10;5.13;;;1.63;;
14141;SDS011;7151;52.246;4.820;2022-08-03T03:34:35;4.17;;;1.23;;
14141;SDS011;7151;52.246;4.820;2022-08-03T03:37:01;6.20;;;1.43;;
14141;SDS011;7151;52.246;4.820;2022-08-03T03:39:27;4.67;;;2.40;;
14141;SDS011;7151;52.246;4.820;2022-08-03T03:41:53;2.67;;;1.40;;
14141;SDS011;7151;52.246;4.820;2022-08-03T03:44:18;5.00;;;1.40;;
14141;SDS011;7151;52.246;4.820;2022-08-03T03:46:44;7.47;;;1.50;;
14141;SDS011;7151;52.246;4.820;2022-08-03T03:49:10;4.27;;;1.57;;
14141;SDS011;7151;52.246;4.820;2022-08-03T03:51:35;2.50;;;1.50;;
14141;SDS011;7151;52.246;4.820;2022-08-03T03:54:02;2.93;;;1.70;;
14141;SDS011;7151;52.246;4.820;2022-08-03T03:56:31;3.83;;;1.67;;
14141;SDS011;7151;52.246;4.820;2022-08-03T03:58:56;2.40;;;1.20;;
14141;SDS011;7151;52.246;4.820;2022-08-03T04:01:22;5.70;;;1.70;;
14141;SDS011;7151;52.246;4.820;2022-08-03T04:03:48;5.10;;;1.80;;
14141;SDS011;7151;52.246;4.820;2022-08-03T04:06:13;5.83;;;1.70;;
14141;SDS011;7151;52.246;4.820;2022-08-03T04:08:58;6.20;;;1.70;;
14141;SDS011;7151;52.246;4.820;2022-08-03T04:11:53;4.43;;;1.43;;
14141;SDS011;7151;52.246;4.820;2022-08-03T04:14:22;2.70;;;1.20;;
14141;SDS011;7151;52.246;4.820;2022-08-03T04:16:52;4.30;;;1.70;;
14141;SDS011;7151;52.246;4.820;2022-08-03T04:19:31;6.80;;;1.90;;
14141;SDS011;7151;52.246;4.820;2022-08-03T04:22:04;4.17;;;1.67;;
14141;SDS011;7151;52.246;4.820;2022-08-03T04:24:34;3.70;;;1.60;;
14141;SDS011;7151;52.246;4.820;2022-08-03T04:27:04;4.57;;;2.00;;
14141;SDS011;7151;52.246;4.820;2022-08-03T04:29:34;2.60;;;1.43;;
14141;SDS011;7151;52.246;4.820;2022-08-03T04:32:02;4.57;;;1.73;;
14141;SDS011;7151;52.246;4.820;2022-08-03T04:34:30;7.00;;;1.60;;
14141;SDS011;7151;52.246;4.820;2022-08-03T04:37:00;3.87;;;1.77;;
14141;SDS011;7151;52.246;4.820;2022-08-03T04:39:30;5.63;;;1.60;;
14141;SDS011;7151;52.246;4.820;2022-08-03T04:42:03;4.80;;;1.90;;
14141;SDS011;7151;52.246;4.820;2022-08-03T04:44:31;3.87;;;1.80;;
14141;SDS011;7151;52.246;4.820;2022-08-03T04:47:04;5.90;;;1.93;;
14141;SDS011;7151;52.246;4.820;2022-08-03T04:49:30;6.23;;;2.50;;
14141;SDS011;7151;52.246;4.820;2022-08-03T04:51:56;4.73;;;1.70;;
14141;SDS011;7151;52.246;4.820;2022-08-03T04:54:22;6.37;;;1.93;;
14141;SDS011;7151;52.246;4.820;2022-08-03T04:56:48;4.93;;;2.40;;
14141;SDS011;7151;52.246;4.820;2022-08-03T04:59:14;2.53;;;1.67;;
14141;SDS011;7151;52.246;4.820;2022-08-03T05:01:41;4.10;;;2.00;;
14141;SDS011;7151;52.246;4.820;2022-08-03T05:04:08;5.80;;;2.00;;
14141;SDS011;7151;52.246;4.820;2022-08-03T05:06:34;6.47;;;2.37;;
14141;SDS011;7151;52.246;4.820;2022-08-03T05:09:00;7.30;;;2.43;;
14141;SDS011;7151;52.246;4.820;2022-08-03T05:11:26;3.80;;;1.77;;
14141;SDS011;7151;52.246;4.820;2022-08-03T05:13:51;6.13;;;2.27;;
14141;SDS011;7151;52.246;4.820;2022-08-03T05:16:17;6.77;;;2.27;;
14141;SDS011;7151;52.246;4.820;2022-08-03T05:18:42;6.77;;;2.17;;
14141;SDS011;7151;52.246;4.820;2022-08-03T05:21:09;7.80;;;2.20;;
14141;SDS011;7151;52.246;4.820;2022-08-03T05:23:37;4.83;;;2.03;;
14141;SDS011;7151;52.246;4.820;2022-08-03T05:26:03;6.50;;;1.83;;
14141;SDS011;7151;52.246;4.820;2022-08-03T05:28:29;9.50;;;2.47;;
14141;SDS011;7151;52.246;4.820;2022-08-03T05:30:54;8.10;;;1.93;;
14141;SDS011;7151;52.246;4.820;2022-08-03T05:33:21;9.13;;;2.40;;
14141;SDS011;7151;52.246;4.820;2022-08-03T05:35:46;8.47;;;1.90;;
14141;SDS011;7151;52.246;4.820;2022-08-03T05:38:12;5.77;;;1.93;;
14141;SDS011;7151;52.246;4.820;2022-08-03T05:40:37;6.33;;;2.20;;
14141;SDS011;7151;52.246;4.820;2022-08-03T05:43:03;7.93;;;2.30;;
14141;SDS011;7151;52.246;4.820;2022-08-03T05:45:28;7.17;;;2.43;;
14141;SDS011;7151;52.246;4.820;2022-08-03T05:47:54;8.53;;;2.60;;
14141;SDS011;7151;52.246;4.820;2022-08-03T05:50:20;6.10;;;2.30;;
14141;SDS011;7151;52.246;4.820;2022-08-03T05:52:45;7.53;;;2.87;;
14141;SDS011;7151;52.246;4.820;2022-08-03T05:55:11;7.50;;;2.00;;
14141;SDS011;7151;52.246;4.820;2022-08-03T05:57:38;10.17;;;2.37;;
14141;SDS011;7151;52.246;4.820;2022-08-03T06:00:04;7.93;;;2.33;;
14141;SDS011;7151;52.246;4.820;2022-08-03T06:02:32;7.87;;;3.10;;
14141;SDS011;7151;52.246;4.820;2022-08-03T06:04:58;9.30;;;2.70;;
14141;SDS011;7151;52.246;4.820;2022-08-03T06:07:23;7.40;;;2.70;;
14141;SDS011;7151;52.246;4.820;2022-08-03T06:09:49;3.70;;;2.67;;
14141;SDS011;7151;52.246;4.820;2022-08-03T06:12:15;9.43;;;2.50;;
14141;SDS011;7151;52.246;4.820;2022-08-03T06:14:41;4.93;;;2.63;;
14141;SDS011;7151;52.246;4.820;2022-08-03T06:17:06;7.10;;;2.60;;
14141;SDS011;7151;52.246;4.820;2022-08-03T06:19:32;9.13;;;3.07;;
14141;SDS011;7151;52.246;4.820;2022-08-03T06:21:57;5.57;;;3.03;;
14141;SDS011;7151;52.246;4.820;2022-08-03T06:24:23;7.03;;;2.60;;
14141;SDS011;7151;52.246;4.820;2022-08-03T06:26:48;9.77;;;3.50;;
14141;SDS011;7151;52.246;4.820;2022-08-03T06:29:14;7.60;;;4.00;;
14141;SDS011;7151;52.246;4.820;2022-08-03T06:31:39;7.90;;;4.37;;
14141;SDS011;7151;52.246;4.820;2022-08-03T06:34:05;11.47;;;4.90;;
14141;SDS011;7151;52.246;4.820;2022-08-03T06:36:31;11.87;;;5.13;;
14141;SDS011;7151;52.246;4.820;2022-08-03T06:38:57;10.10;;;5.03;;
14141;SDS011;7151;52.246;4.820;2022-08-03T06:41:23;8.03;;;4.73;;
14141;SDS011;7151;52.246;4.820;2022-08-03T06:43:49;10.80;;;4.50;;
14141;SDS011;7151;52.246;4.820;2022-08-03T06:46:15;9.30;;;4.80;;
14141;SDS011;7151;52.246;4.820;2022-08-03T06:48:41;14.57;;;5.10;;
14141;SDS011;7151;52.246;4.820;2022-08-03T06:51:07;17.10;;;5.60;;
14141;SDS011;7151;52.246;4.820;2022-08-03T06:53:32;14.43;;;6.27;;
14141;SDS011;7151;52.246;4.820;2022-08-03T06:55:58;12.77;;;5.57;;
14141;SDS011;7151;52.246;4.820;2022-08-03T06:58:24;12.70;;;5.90;;
14141;SDS011;7151;52.246;4.820;2022-08-03T07:00:50;12.67;;;6.83;;
14141;SDS011;7151;52.246;4.820;2022-08-03T07:03:16;11.87;;;6.23;;
14141;SDS011;7151;52.246;4.820;2022-08-03T07:05:42;11.87;;;6.43;;
14141;SDS011;7151;52.246;4.820;2022-08-03T07:08:10;12.83;;;6.03;;
14141;SDS011;7151;52.246;4.820;2022-08-03T07:10:36;13.40;;;7.17;;
14141;SDS011;7151;52.246;4.820;2022-08-03T07:13:01;13.77;;;7.40;;
14141;SDS011;7151;52.246;4.820;2022-08-03T07:15:28;14.00;;;7.13;;
14141;SDS011;7151;52.246;4.820;2022-08-03T07:17:54;11.27;;;7.53;;
14141;SDS011;7151;52.246;4.820;2022-08-03T07:20:20;12.80;;;7.03;;
14141;SDS011;7151;52.246;4.820;2022-08-03T07:22:46;12.73;;;7.03;;
14141;SDS011;7151;52.246;4.820;2022-08-03T07:25:11;16.10;;;7.80;;
14141;SDS011;7151;52.246;4.820;2022-08-03T07:27:37;10.77;;;6.67;;
14141;SDS011;7151;52.246;4.820;2022-08-03T07:30:04;15.27;;;7.07;;
14141;SDS011;7151;52.246;4.820;2022-08-03T07:32:31;13.53;;;6.33;;
14141;SDS011;7151;52.246;4.820;2022-08-03T07:34:57;12.40;;;6.70;;
14141;SDS011;7151;52.246;4.820;2022-08-03T07:37:22;12.37;;;6.80;;
14141;SDS011;7151;52.246;4.820;2022-08-03T07:39:48;12.00;;;6.50;;
14141;SDS011;7151;52.246;4.820;2022-08-03T07:42:13;12.37;;;6.60;;
14141;SDS011;7151;52.246;4.820;2022-08-03T07:44:39;10.27;;;6.03;;
14141;SDS011;7151;52.246;4.820;2022-08-03T07:47:05;12.90;;;6.37;;
14141;SDS011;7151;52.246;4.820;2022-08-03T07:49:31;10.43;;;6.20;;
14141;SDS011;7151;52.246;4.820;2022-08-03T07:51:56;9.57;;;5.73;;
14141;SDS011;7151;52.246;4.820;2022-08-03T07:54:40;14.10;;;6.10;;
14141;SDS011;7151;52.246;4.820;2022-08-03T07:57:06;11.43;;;5.50;;
14141;SDS011;7151;52.246;4.820;2022-08-03T07:59:32;8.13;;;4.80;;
14141;SDS011;7151;52.246;4.820;2022-08-03T08:01:59;7.47;;;4.80;;
14141;SDS011;7151;52.246;4.820;2022-08-03T08:04:24;13.90;;;5.00;;
14141;SDS011;7151;52.246;4.820;2022-08-03T08:06:50;6.23;;;4.27;;
14141;SDS011;7151;52.246;4.820;2022-08-03T08:09:15;13.27;;;5.03;;
14141;SDS011;7151;52.246;4.820;2022-08-03T08:11:41;8.30;;;4.80;;
14141;SDS011;7151;52.246;4.820;2022-08-03T08:14:08;10.80;;;4.57;;
14141;SDS011;7151;52.246;4.820;2022-08-03T08:16:33;8.63;;;5.57;;
14141;SDS011;7151;52.246;4.820;2022-08-03T08:18:59;10.63;;;4.70;;
14141;SDS011;7151;52.246;4.820;2022-08-03T08:21:26;9.50;;;4.87;;
14141;SDS011;7151;52.246;4.820;2022-08-03T08:23:51;8.60;;;4.83;;
14141;SDS011;7151;52.246;4.820;2022-08-03T08:26:17;7.20;;;4.47;;
14141;SDS011;7151;52.246;4.820;2022-08-03T08:28:42;10.37;;;4.50;;
14141;SDS011;7151;52.246;4.820;2022-08-03T08:31:08;10.10;;;4.80;;
14141;SDS011;7151;52.246;4.820;2022-08-03T08:33:33;11.57;;;5.03;;
14141;SDS011;7151;52.246;4.820;2022-08-03T08:36:00;8.00;;;4.70;;
14141;SDS011;7151;52.246;4.820;2022-08-03T08:38:25;10.37;;;5.07;;
14141;SDS011;7151;52.246;4.820;2022-08-03T08:40:53;7.17;;;4.83;;
14141;SDS011;7151;52.246;4.820;2022-08-03T08:43:19;9.80;;;5.17;;
14141;SDS011;7151;52.246;4.820;2022-08-03T08:45:46;7.10;;;4.60;;
14141;SDS011;7151;52.246;4.820;2022-08-03T08:48:14;6.23;;;4.40;;
14141;SDS011;7151;52.246;4.820;2022-08-03T08:50:45;6.83;;;5.50;;
14141;SDS011;7151;52.246;4.820;2022-08-03T08:53:12;11.40;;;6.20;;
14141;SDS011;7151;52.246;4.820;2022-08-03T08:55:38;7.87;;;5.50;;
14141;SDS011;7151;52.246;4.820;2022-08-03T08:58:04;7.73;;;5.00;;
14141;SDS011;7151;52.246;4.820;2022-08-03T09:00:32;8.53;;;4.70;;
14141;SDS011;7151;52.246;4.820;2022-08-03T09:02:57;8.07;;;4.30;;
14141;SDS011;7151;52.246;4.820;2022-08-03T09:05:24;6.53;;;4.67;;
14141;SDS011;7151;52.246;4.820;2022-08-03T09:07:50;8.80;;;4.73;;
14141;SDS011;7151;52.246;4.820;2022-08-03T09:10:16;8.80;;;4.60;;
14141;SDS011;7151;52.246;4.820;2022-08-03T09:12:49;8.33;;;4.47;;
14141;SDS011;7151;52.246;4.820;2022-08-03T09:15:23;10.60;;;4.77;;
14141;SDS011;7151;52.246;4.820;2022-08-03T09:17:53;8.23;;;4.53;;
14141;SDS011;7151;52.246;4.820;2022-08-03T09:20:22;7.17;;;4.57;;
14141;SDS011;7151;52.246;4.820;2022-08-03T09:22:55;6.23;;;4.20;;
14141;SDS011;7151;52.246;4.820;2022-08-03T09:25:26;12.03;;;4.20;;
14141;SDS011;7151;52.246;4.820;2022-08-03T09:28:13;6.20;;;4.20;;
14141;SDS011;7151;52.246;4.820;2022-08-03T09:30:42;5.30;;;4.13;;
14141;SDS011;7151;52.246;4.820;2022-08-03T09:33:10;9.13;;;4.10;;
14141;SDS011;7151;52.246;4.820;2022-08-03T09:35:44;9.80;;;4.60;;
14141;SDS011;7151;52.246;4.820;2022-08-03T09:40:41;11.40;;;4.10;;
14141;SDS011;7151;52.246;4.820;2022-08-03T09:43:07;10.17;;;3.97;;
14141;SDS011;7151;52.246;4.820;2022-08-03T09:45:34;10.97;;;4.43;;
14141;SDS011;7151;52.246;4.820;2022-08-03T09:50:55;10.03;;;4.40;;
14141;SDS011;7151;52.246;4.820;2022-08-03T09:53:22;10.13;;;4.87;;
14141;SDS011;7151;52.246;4.820;2022-08-03T09:55:49;12.03;;;4.80;;
14141;SDS011;7151;52.246;4.820;2022-08-03T09:58:26;7.83;;;4.97;;
14141;SDS011;7151;52.246;4.820;2022-08-03T10:00:55;8.77;;;4.93;;
14141;SDS011;7151;52.246;4.820;2022-08-03T10:03:22;7.30;;;4.63;;
14141;SDS011;7151;52.246;4.820;2022-08-03T10:05:49;7.93;;;4.30;;
14141;SDS011;7151;52.246;4.820;2022-08-03T10:08:16;6.70;;;4.70;;
14141;SDS011;7151;52.246;4.820;2022-08-03T10:10:43;10.40;;;4.80;;
14141;SDS011;7151;52.246;4.820;2022-08-03T10:13:10;7.00;;;4.50;;
14141;SDS011;7151;52.246;4.820;2022-08-03T10:15:38;10.57;;;4.47;;
14141;SDS011;7151;52.246;4.820;2022-08-03T10:18:04;8.45;;;4.80;;
14141;SDS011;7151;52.246;4.820;2022-08-03T10:20:30;8.90;;;4.18;;
14141;SDS011;7151;52.246;4.820;2022-08-03T10:23:00;8.82;;;5.13;;
14141;SDS011;7151;52.246;4.820;2022-08-03T10:25:27;6.17;;;4.67;;
14141;SDS011;7151;52.246;4.820;2022-08-03T10:27:54;10.52;;;4.38;;
14141;SDS011;7151;52.246;4.820;2022-08-03T10:30:22;10.25;;;4.15;;
14141;SDS011;7151;52.246;4.820;2022-08-03T10:32:57;7.63;;;4.05;;
14141;SDS011;7151;52.246;4.820;2022-08-03T10:35:32;4.97;;;3.97;;
14141;SDS011;7151;52.246;4.820;2022-08-03T10:38:01;5.07;;;4.10;;
14141;SDS011;7151;52.246;4.820;2022-08-03T10:40:30;9.38;;;4.93;;
14141;SDS011;7151;52.246;4.820;2022-08-03T10:43:08;9.93;;;4.40;;
14141;SDS011;7151;52.246;4.820;2022-08-03T10:45:39;7.88;;;3.85;;
14141;SDS011;7151;52.246;4.820;2022-08-03T10:48:06;10.68;;;4.03;;
14141;SDS011;7151;52.246;4.820;2022-08-03T10:50:32;8.80;;;3.40;;
14141;SDS011;7151;52.246;4.820;2022-08-03T10:53:07;5.95;;;3.97;;
14141;SDS011;7151;52.246;4.820;2022-08-03T10:55:33;6.82;;;4.18;;
14141;SDS011;7151;52.246;4.820;2022-08-03T11:01:05;8.27;;;4.13;;
14141;SDS011;7151;52.246;4.820;2022-08-03T11:03:32;5.78;;;3.35;;
14141;SDS011;7151;52.246;4.820;2022-08-03T11:06:14;5.93;;;4.22;;
14141;SDS011;7151;52.246;4.820;2022-08-03T11:08:45;7.05;;;4.47;;
14141;SDS011;7151;52.246;4.820;2022-08-03T11:13:55;7.57;;;4.00;;
14141;SDS011;7151;52.246;4.820;2022-08-03T11:16:22;7.00;;;3.50;;
14141;SDS011;7151;52.246;4.820;2022-08-03T11:18:57;7.30;;;3.90;;
14141;SDS011;7151;52.246;4.820;2022-08-03T11:27:23;7.25;;;3.67;;
14141;SDS011;7151;52.246;4.820;2022-08-03T11:30:21;7.53;;;3.67;;
14141;SDS011;7151;52.246;4.820;2022-08-03T11:32:50;7.30;;;3.03;;
14141;SDS011;7151;52.246;4.820;2022-08-03T11:40:41;6.55;;;3.42;;
14141;SDS011;7151;52.246;4.820;2022-08-03T11:48:42;6.05;;;3.35;;
14141;SDS011;7151;52.246;4.820;2022-08-03T11:53:56;8.52;;;3.17;;
14141;SDS011;7151;52.246;4.820;2022-08-03T11:56:26;3.95;;;2.83;;
14141;SDS011;7151;52.246;4.820;2022-08-03T11:58:53;5.50;;;2.80;;
14141;SDS011;7151;52.246;4.820;2022-08-03T12:01:20;8.60;;;2.92;;
14141;SDS011;7151;52.246;4.820;2022-08-03T12:03:47;5.13;;;2.13;;
14141;SDS011;7151;52.246;4.820;2022-08-03T12:06:14;5.13;;;2.47;;
14141;SDS011;7151;52.246;4.820;2022-08-03T12:08:41;3.70;;;2.13;;
14141;SDS011;7151;52.246;4.820;2022-08-03T12:11:09;4.45;;;2.33;;
14141;SDS011;7151;52.246;4.820;2022-08-03T12:13:41;8.15;;;2.90;;
14141;SDS011;7151;52.246;4.820;2022-08-03T12:16:16;4.30;;;2.20;;
14141;SDS011;7151;52.246;4.820;2022-08-03T12:18:44;7.63;;;2.30;;
14141;SDS011;7151;52.246;4.820;2022-08-03T12:21:10;3.25;;;2.17;;
14141;SDS011;7151;52.246;4.820;2022-08-03T12:23:36;3.53;;;2.53;;
14141;SDS011;7151;52.246;4.820;2022-08-03T12:26:06;6.97;;;2.22;;
14141;SDS011;7151;52.246;4.820;2022-08-03T12:28:33;5.85;;;2.33;;
14141;SDS011;7151;52.246;4.820;2022-08-03T12:31:04;4.50;;;1.92;;
14141;SDS011;7151;52.246;4.820;2022-08-03T12:33:31;4.05;;;1.88;;
14141;SDS011;7151;52.246;4.820;2022-08-03T12:36:17;4.57;;;2.10;;
14141;SDS011;7151;52.246;4.820;2022-08-03T12:38:43;3.58;;;1.80;;
14141;SDS011;7151;52.246;4.820;2022-08-03T12:41:38;3.75;;;1.55;;
14141;SDS011;7151;52.246;4.820;2022-08-03T12:44:05;5.03;;;2.53;;
14141;SDS011;7151;52.246;4.820;2022-08-03T12:46:33;3.05;;;1.77;;
14141;SDS011;7151;52.246;4.820;2022-08-03T12:49:21;5.78;;;1.85;;
14141;SDS011;7151;52.246;4.820;2022-08-03T12:54:14;7.53;;;2.10;;
14141;SDS011;7151;52.246;4.820;2022-08-03T12:59:29;3.33;;;1.63;;
14141;SDS011;7151;52.246;4.820;2022-08-03T13:01:59;5.30;;;1.77;;
14141;SDS011;7151;52.246;4.820;2022-08-03T13:04:29;4.97;;;1.42;;
14141;SDS011;7151;52.246;4.820;2022-08-03T13:06:56;4.50;;;1.20;;
14141;SDS011;7151;52.246;4.820;2022-08-03T13:09:28;3.58;;;1.88;;
14141;SDS011;7151;52.246;4.820;2022-08-03T13:12:05;2.92;;;1.30;;
14141;SDS011;7151;52.246;4.820;2022-08-03T13:14:36;3.22;;;1.30;;
14141;SDS011;7151;52.246;4.820;2022-08-03T13:17:02;4.20;;;1.40;;
14141;SDS011;7151;52.246;4.820;2022-08-03T13:19:28;2.85;;;1.10;;
14141;SDS011;7151;52.246;4.820;2022-08-03T13:21:53;4.85;;;1.83;;
14141;SDS011;7151;52.246;4.820;2022-08-03T13:24:19;5.32;;;1.52;;
14141;SDS011;7151;52.246;4.820;2022-08-03T13:26:44;3.45;;;1.33;;
14141;SDS011;7151;52.246;4.820;2022-08-03T13:29:10;6.07;;;1.65;;
14141;SDS011;7151;52.246;4.820;2022-08-03T13:31:36;1.55;;;1.40;;
14141;SDS011;7151;52.246;4.820;2022-08-03T13:34:01;5.13;;;1.58;;
14141;SDS011;7151;52.246;4.820;2022-08-03T13:36:27;5.22;;;1.50;;
14141;SDS011;7151;52.246;4.820;2022-08-03T13:38:52;3.50;;;1.45;;
14141;SDS011;7151;52.246;4.820;2022-08-03T13:41:18;3.67;;;1.23;;
14141;SDS011;7151;52.246;4.820;2022-08-03T13:43:43;5.20;;;1.40;;
14141;SDS011;7151;52.246;4.820;2022-08-03T13:46:09;3.97;;;1.60;;
14141;SDS011;7151;52.246;4.820;2022-08-03T13:48:34;6.85;;;1.70;;
14141;SDS011;7151;52.246;4.820;2022-08-03T13:51:00;2.10;;;1.10;;
14141;SDS011;7151;52.246;4.820;2022-08-03T13:53:25;2.50;;;1.17;;
14141;SDS011;7151;52.246;4.820;2022-08-03T13:55:51;7.10;;;1.30;;
14141;SDS011;7151;52.246;4.820;2022-08-03T13:58:16;3.53;;;1.33;;
14141;SDS011;7151;52.246;4.820;2022-08-03T14:00:42;4.43;;;1.30;;
14141;SDS011;7151;52.246;4.820;2022-08-03T14:03:08;5.60;;;1.73;;
14141;SDS011;7151;52.246;4.820;2022-08-03T14:05:33;2.92;;;1.10;;
14141;SDS011;7151;52.246;4.820;2022-08-03T14:08:00;2.30;;;1.35;;
14141;SDS011;7151;52.246;4.820;2022-08-03T14:10:26;2.78;;;1.40;;
14141;SDS011;7151;52.246;4.820;2022-08-03T14:12:51;4.47;;;1.30;;
14141;SDS011;7151;52.246;4.820;2022-08-03T14:15:17;3.00;;;1.27;;
14141;SDS011;7151;52.246;4.820;2022-08-03T14:17:43;3.42;;;1.30;;
14141;SDS011;7151;52.246;4.820;2022-08-03T14:20:08;3.53;;;1.33;;
14141;SDS011;7151;52.246;4.820;2022-08-03T14:22:36;5.28;;;1.52;;
14141;SDS011;7151;52.246;4.820;2022-08-03T14:25:02;6.78;;;1.33;;
14141;SDS011;7151;52.246;4.820;2022-08-03T14:27:28;3.85;;;1.15;;
14141;SDS011;7151;52.246;4.820;2022-08-03T14:29:53;3.47;;;1.20;;
14141;SDS011;7151;52.246;4.820;2022-08-03T14:32:23;2.20;;;1.08;;
14141;SDS011;7151;52.246;4.820;2022-08-03T14:34:49;3.22;;;1.40;;
14141;SDS011;7151;52.246;4.820;2022-08-03T14:37:15;2.45;;;1.23;;
14141;SDS011;7151;52.246;4.820;2022-08-03T14:39:40;4.05;;;1.10;;
14141;SDS011;7151;52.246;4.820;2022-08-03T14:42:06;5.38;;;1.30;;
14141;SDS011;7151;52.246;4.820;2022-08-03T14:44:31;3.33;;;1.83;;
14141;SDS011;7151;52.246;4.820;2022-08-03T14:46:57;1.92;;;1.00;;
14141;SDS011;7151;52.246;4.820;2022-08-03T14:49:22;4.78;;;1.20;;
14141;SDS011;7151;52.246;4.820;2022-08-03T14:51:48;5.13;;;1.20;;
14141;SDS011;7151;52.246;4.820;2022-08-03T14:54:13;1.85;;;1.08;;
14141;SDS011;7151;52.246;4.820;2022-08-03T14:56:39;2.58;;;1.13;;
14141;SDS011;7151;52.246;4.820;2022-08-03T14:59:04;4.65;;;1.63;;
14141;SDS011;7151;52.246;4.820;2022-08-03T15:01:30;2.58;;;1.02;;
14141;SDS011;7151;52.246;4.820;2022-08-03T15:03:56;1.67;;;1.20;;
14141;SDS011;7151;52.246;4.820;2022-08-03T15:06:21;3.75;;;1.30;;
14141;SDS011;7151;52.246;4.820;2022-08-03T15:08:48;5.35;;;1.10;;
14141;SDS011;7151;52.246;4.820;2022-08-03T15:11:13;4.25;;;2.08;;
14141;SDS011;7151;52.246;4.820;2022-08-03T15:13:39;8.48;;;3.83;;
14141;SDS011;7151;52.246;4.820;2022-08-03T15:16:04;9.27;;;5.72;;
14141;SDS011;7151;52.246;4.820;2022-08-03T15:18:30;15.48;;;9.57;;
14141;SDS011;7151;52.246;4.820;2022-08-03T15:20:56;13.02;;;7.10;;
14141;SDS011;7151;52.246;4.820;2022-08-03T15:23:21;7.90;;;2.90;;
14141;SDS011;7151;52.246;4.820;2022-08-03T15:25:47;6.28;;;1.60;;
14141;SDS011;7151;52.246;4.820;2022-08-03T15:28:13;3.33;;;1.42;;
14141;SDS011;7151;52.246;4.820;2022-08-03T15:30:38;3.33;;;1.45;;
14141;SDS011;7151;52.246;4.820;2022-08-03T15:33:04;1.85;;;1.05;;
14141;SDS011;7151;52.246;4.820;2022-08-03T15:35:29;4.05;;;1.05;;
14141;SDS011;7151;52.246;4.820;2022-08-03T15:37:55;2.92;;;1.45;;
14141;SDS011;7151;52.246;4.820;2022-08-03T15:40:21;2.78;;;0.88;;
14141;SDS011;7151;52.246;4.820;2022-08-03T15:42:46;1.63;;;1.23;;
14141;SDS011;7151;52.246;4.820;2022-08-03T15:45:12;1.20;;;0.98;;
14141;SDS011;7151;52.246;4.820;2022-08-03T15:47:37;2.40;;;1.13;;
14141;SDS011;7151;52.246;4.820;2022-08-03T15:50:03;2.30;;;1.15;;
14141;SDS011;7151;52.246;4.820;2022-08-03T15:52:29;3.28;;;0.93;;